Time;durP1;ratioP1;P1;durP2;ratioP2;P2;SDS_P1;SDS_P2;PMS_P1;PMS_P2;Temp;Humidity;BMP_temperature;BMP_pressure;BME280_temperature;BME280_humidity;BME280_pressure;Samples;Min_cycle;Max_cycle;Signal;HPM_P1;HPM_P2
2021/12/19 00:00:20;;;;;;;10.90;7.12;;;;;;;-0.22;100.00;99609.81;1718033;83;21010;-73
2021/12/19 00:08:42;;;;;;;12.33;7.00;;;;;;;-0.17;100.00;99594.28;1717696;83;21081;-75
2021/12/19 00:10:57;;;;;;;9.93;6.35;;;;;;;-0.17;100.00;99587.37;1715375;83;21076;-75
2021/12/19 00:13:25;;;;;;;12.50;7.70;;;;;;;-0.19;100.00;99579.18;1717776;83;21044;-74
2021/12/19 00:15:53;;;;;;;11.57;5.65;;;;;;;-0.20;100.00;99571.00;1717780;83;21153;-74
2021/12/19 00:18:20;;;;;;;10.93;6.60;;;;;;;-0.18;100.00;99562.77;1717904;83;21041;-73
2021/12/19 00:20:47;;;;;;;11.28;6.97;;;;;;;-0.14;100.00;99565.79;1717708;83;21045;-75
2021/12/19 00:23:14;;;;;;;10.23;6.42;;;;;;;-0.07;100.00;99568.79;1717373;83;21080;-74
2021/12/19 00:25:42;;;;;;;12.10;7.00;;;;;;;-0.09;100.00;99564.05;1717640;83;21117;-73
2021/12/19 00:28:09;;;;;;;10.58;6.70;;;;;;;-0.07;100.00;99555.44;1717944;83;21126;-73
2021/12/19 00:30:35;;;;;;;12.05;7.03;;;;;;;-0.05;100.00;99554.12;1717567;83;21018;-75
2021/12/19 00:33:02;;;;;;;12.05;6.70;;;;;;;-0.07;100.00;99549.38;1717862;83;21064;-73
2021/12/19 00:35:29;;;;;;;9.60;5.95;;;;;;;-0.08;100.00;99550.25;1717749;83;21100;-73
2021/12/19 00:37:55;;;;;;;11.70;6.83;;;;;;;-0.07;100.00;99539.02;1717648;83;21220;-74
2021/12/19 00:40:22;;;;;;;13.80;7.67;;;;;;;-0.03;100.00;99522.17;1717860;83;21820;-74
2021/12/19 00:42:52;;;;;;;9.88;6.75;;;;;;;-0.04;100.00;99515.73;1717727;83;21663;-73
2021/12/19 00:45:26;;;;;;;14.38;8.00;;;;;;;-0.06;100.00;99512.28;1717602;83;21092;-73
2021/12/19 00:47:45;;;;;;;12.10;6.78;;;;;;;-0.01;100.00;99507.94;1716133;83;21105;-73
2021/12/19 00:50:13;;;;;;;15.03;7.83;;;;;;;-0.02;100.00;99499.77;1717779;83;21589;-73
2021/12/19 00:52:41;;;;;;;11.08;7.25;;;;;;;-0.05;100.00;99479.05;1718049;83;21104;-73
2021/12/19 00:55:08;;;;;;;10.60;6.47;;;;;;;-0.03;100.00;99483.78;1718379;82;21057;-72
2021/12/19 00:57:35;;;;;;;12.43;7.15;;;;;;;-0.03;100.00;99481.20;1747332;82;21029;-73
2021/12/19 01:00:04;;;;;;;12.20;7.90;;;;;;;-0.04;100.00;99474.31;1747288;82;21113;-73
2021/12/19 01:02:31;;;;;;;10.85;7.08;;;;;;;-0.03;100.00;99478.61;1717780;83;21081;-72
2021/12/19 01:04:58;;;;;;;12.43;6.70;;;;;;;-0.04;100.00;99469.14;1717554;83;21132;-74
2021/12/19 01:07:24;;;;;;;10.38;6.65;;;;;;;-0.08;100.00;99468.72;1717489;83;21045;-72
2021/12/19 01:09:51;;;;;;;12.03;7.20;;;;;;;-0.05;100.00;99466.10;1717992;83;21241;-73
2021/12/19 01:12:18;;;;;;;12.78;6.72;;;;;;;-0.05;100.00;99467.40;1717341;83;21057;-73
2021/12/19 01:14:45;;;;;;;11.73;7.33;;;;;;;-0.03;100.00;99471.70;1718050;83;21038;-73
2021/12/19 01:17:12;;;;;;;14.13;7.83;;;;;;;-0.03;100.00;99454.02;1717727;83;21565;-72
2021/12/19 01:19:40;;;;;;;10.50;6.72;;;;;;;0.04;100.00;99428.52;1717837;83;21053;-71
2021/12/19 01:22:09;;;;;;;13.60;7.47;;;;;;;0.04;100.00;99420.76;1735593;82;21556;-73
2021/12/19 01:24:35;;;;;;;12.07;7.12;;;;;;;0.01;100.00;99407.84;1745968;82;21035;-71
2021/12/19 01:27:04;;;;;;;10.85;6.72;;;;;;;0.05;100.00;99411.28;1679201;85;21073;-72
2021/12/19 01:29:31;;;;;;;11.65;7.75;;;;;;;0.03;100.00;99416.46;1745901;82;21099;-73
2021/12/19 01:31:59;;;;;;;11.20;7.17;;;;;;;-0.01;100.00;99401.81;1745717;82;21584;-74
2021/12/19 01:34:25;;;;;;;10.80;6.67;;;;;;;0.00;100.00;99398.37;1747523;82;21826;-73
2021/12/19 01:36:52;;;;;;;12.05;5.37;;;;;;;0.02;100.00;99395.75;1747429;81;21053;-71
2021/12/19 01:39:20;;;;;;;10.53;6.50;;;;;;;0.01;100.00;99378.52;1747463;82;21049;-72
2021/12/19 01:41:55;;;;;;;11.90;7.35;;;;;;;0.00;100.00;99366.02;1746935;81;21142;-72
2021/12/19 01:44:22;;;;;;;12.18;7.42;;;;;;;-0.02;100.00;99358.69;1733286;82;21573;-73
2021/12/19 01:46:49;;;;;;;9.85;6.60;;;;;;;-0.01;100.00;99342.27;1731780;82;21038;-72
2021/12/19 01:49:17;;;;;;;10.45;6.95;;;;;;;-0.04;100.00;99334.53;1733266;82;21037;-72
2021/12/19 01:51:44;;;;;;;11.53;6.58;;;;;;;-0.04;100.00;99330.66;1733529;82;21686;-71
2021/12/19 01:54:11;;;;;;;11.30;7.03;;;;;;;-0.05;100.00;99330.21;1733307;82;21588;-72
2021/12/19 01:56:39;;;;;;;12.70;6.83;;;;;;;-0.04;100.00;99330.21;1714213;82;21007;-71
2021/12/19 01:59:10;;;;;;;10.55;6.60;;;;;;;0.00;100.00;99320.70;1704347;84;21089;-71
2021/12/19 02:01:51;;;;;;;9.48;6.28;;;;;;;-0.02;100.00;99306.91;1703990;84;21107;-71
2021/12/19 02:04:19;;;;;;;11.75;6.80;;;;;;;-0.01;100.00;99303.44;1702780;83;21205;-71
2021/12/19 02:06:48;;;;;;;8.85;6.00;;;;;;;-0.03;100.00;99306.03;1704131;83;21082;-72
2021/12/19 02:09:14;;;;;;;11.20;6.40;;;;;;;-0.01;100.00;99308.62;1704014;84;21053;-72
2021/12/19 02:11:42;;;;;;;9.88;6.35;;;;;;;0.02;100.00;99302.11;1684054;84;21050;-72
2021/12/19 02:14:10;;;;;;;10.93;6.65;;;;;;;0.03;100.00;99299.97;1703997;83;21052;-71
2021/12/19 02:16:38;;;;;;;9.85;6.30;;;;;;;0.08;100.00;99298.19;1704212;84;21110;-74
2021/12/19 02:19:06;;;;;;;9.28;6.10;;;;;;;0.12;100.00;99294.72;1704204;84;21803;-73
2021/12/19 02:21:33;;;;;;;12.85;7.30;;;;;;;0.13;100.00;99284.77;1703721;84;21080;-73
2021/12/19 02:24:03;;;;;;;9.20;6.40;;;;;;;0.20;100.00;99279.10;1703994;84;21898;-74
2021/12/19 02:26:29;;;;;;;10.00;7.15;;;;;;;0.23;100.00;99270.45;1704272;84;21046;-74
2021/12/19 02:28:56;;;;;;;8.08;5.55;;;;;;;0.26;100.00;99275.63;1703899;84;21069;-72
2021/12/19 02:31:24;;;;;;;11.68;6.92;;;;;;;0.28;100.00;99267.41;1703708;84;20992;-74
2021/12/19 02:34:40;;;;;;;10.65;6.75;;;;;;;0.24;100.00;99260.53;1704110;84;21114;-72
2021/12/19 02:36:37;;;;;;;10.35;6.87;;;;;;;0.23;100.00;99255.80;1682181;83;21072;-72
2021/12/19 02:49:51;;;;;;;10.30;7.28;;;;;;;0.19;100.00;99217.84;1704635;83;21390;-72
2021/12/19 02:52:19;;;;;;;11.75;6.62;;;;;;;0.25;100.00;99212.59;1704013;83;21034;-72
2021/12/19 03:01:44;;;;;;;12.43;7.80;;;;;;;0.18;100.00;99176.86;1838382;77;22584;-73
2021/12/19 03:04:12;;;;;;;10.48;6.83;;;;;;;0.19;100.00;99165.61;1797041;79;21073;-73
2021/12/19 03:06:48;;;;;;;9.25;6.50;;;;;;;0.23;100.00;99177.23;1797263;79;21101;-73
2021/12/19 03:19:56;;;;;;;9.55;5.72;;;;;;;0.16;100.00;99134.59;1760640;81;22342;-74
2021/12/19 03:22:23;;;;;;;10.20;6.42;;;;;;;0.12;100.00;99135.48;1730129;81;21602;-72
2021/12/19 03:24:49;;;;;;;8.20;5.58;;;;;;;0.09;100.00;99134.23;1760394;81;21060;-73
2021/12/19 03:27:17;;;;;;;9.28;6.10;;;;;;;0.11;100.00;99136.34;1760132;81;21059;-75
2021/12/19 03:29:43;;;;;;;8.78;5.95;;;;;;;0.08;100.00;99138.13;1760656;81;21092;-74
2021/12/19 03:32:12;;;;;;;10.60;6.85;;;;;;;0.04;100.00;99123.05;1760459;81;21984;-75
2021/12/19 03:34:39;;;;;;;11.83;6.28;;;;;;;0.02;100.00;99121.35;1760230;81;21056;-74
2021/12/19 03:37:06;;;;;;;8.98;5.80;;;;;;;-0.01;100.00;99110.59;1760432;81;21088;-74
2021/12/19 03:39:44;;;;;;;9.23;5.65;;;;;;;0.00;100.00;99099.39;1760364;81;21009;-73
2021/12/19 03:42:03;;;;;;;13.53;6.62;;;;;;;0.00;100.00;99096.80;1758372;81;21607;-74
2021/12/19 03:44:29;;;;;;;10.63;6.65;;;;;;;0.04;100.00;99091.13;1760486;81;21095;-71
2021/12/19 03:46:56;;;;;;;9.53;6.03;;;;;;;0.06;100.00;99077.30;1760215;81;21080;-72
2021/12/19 03:49:23;;;;;;;13.43;7.22;;;;;;;0.05;100.00;99076.89;1760561;81;21021;-73
2021/12/19 03:51:50;;;;;;;10.58;6.50;;;;;;;0.09;100.00;99069.52;1760512;81;21024;-73
2021/12/19 03:54:16;;;;;;;12.70;7.00;;;;;;;0.06;100.00;99056.58;1760630;81;21118;-73
2021/12/19 03:56:44;;;;;;;11.25;6.30;;;;;;;0.01;100.00;99048.02;1739370;81;22082;-73
2021/12/19 03:59:12;;;;;;;10.08;5.90;;;;;;;0.04;100.00;99049.72;1730013;82;21051;-74
2021/12/19 04:01:42;;;;;;;9.93;6.10;;;;;;;0.01;100.00;99035.08;1719042;82;21114;-74
2021/12/19 04:04:07;;;;;;;10.23;6.58;;;;;;;0.04;100.00;99035.03;1717094;83;21107;-73
2021/12/19 04:06:34;;;;;;;8.98;5.53;;;;;;;0.10;100.00;99020.73;1717200;83;21079;-75
2021/12/19 04:09:02;;;;;;;9.65;5.92;;;;;;;0.09;100.00;99013.85;1718958;83;21156;-73
2021/12/19 04:11:30;;;;;;;10.95;6.25;;;;;;;0.12;100.00;99012.95;1719465;82;21063;-76
2021/12/19 04:13:57;;;;;;;11.03;6.83;;;;;;;0.12;100.00;99003.45;1719816;83;21028;-75
2021/12/19 04:16:25;;;;;;;10.15;6.67;;;;;;;0.15;100.00;98996.92;1719697;83;21016;-76
2021/12/19 04:18:51;;;;;;;10.43;6.35;;;;;;;0.19;100.00;98992.13;1720019;83;21059;-76
2021/12/19 04:21:18;;;;;;;12.50;7.00;;;;;;;0.19;100.00;98992.58;1719643;83;21784;-76
2021/12/19 04:23:45;;;;;;;13.15;6.40;;;;;;;0.25;100.00;98983.86;1717540;83;21274;-75
2021/12/19 04:26:12;;;;;;;10.30;6.92;;;;;;;0.27;100.00;98984.70;1719947;82;21013;-75
2021/12/19 04:28:38;;;;;;;13.08;7.35;;;;;;;0.29;100.00;98982.94;1721290;83;21011;-74
2021/12/19 04:31:05;;;;;;;11.40;6.85;;;;;;;0.29;100.00;98982.50;1719710;82;21352;-74
2021/12/19 04:33:33;;;;;;;12.18;7.83;;;;;;;0.28;100.00;98981.25;1717443;83;21619;-72
2021/12/19 04:36:03;;;;;;;11.55;7.42;;;;;;;0.30;100.00;98978.17;1716980;82;21641;-71
2021/12/19 04:39:01;;;;;;;14.45;7.87;;;;;;;0.31;100.00;98970.84;1716879;83;21527;-71
2021/12/19 04:41:40;;;;;;;11.05;7.30;;;;;;;0.32;100.00;98982.89;1725640;82;21076;-75
2021/12/19 04:52:15;;;;;;;9.80;5.95;;;;;;;0.46;100.00;98943.42;1744325;82;20990;-71
2021/12/19 04:59:46;;;;;;;12.35;6.55;;;;;;;0.54;100.00;98920.83;1719925;81;21120;-74
2021/12/19 05:05:02;;;;;;;10.50;6.97;;;;;;;0.49;100.00;98909.69;1730360;82;22010;-73
2021/12/19 05:15:10;;;;;;;9.80;5.83;;;;;;;0.43;100.00;98896.83;1742475;82;21096;-75
2021/12/19 05:17:38;;;;;;;11.38;7.05;;;;;;;0.43;100.00;98882.58;1743104;82;21081;-74
2021/12/19 05:20:16;;;;;;;10.55;6.62;;;;;;;0.43;100.00;98869.63;1742800;82;21037;-75
2021/12/19 05:22:47;;;;;;;10.82;6.62;;;;;;;0.43;100.00;98868.34;1743659;82;20978;-74
2021/12/19 05:25:15;;;;;;;13.38;6.83;;;;;;;0.43;100.00;98865.75;1741701;82;21148;-74
2021/12/19 05:27:45;;;;;;;10.72;6.60;;;;;;;0.45;100.00;98863.14;1743276;82;22190;-72
2021/12/19 05:30:13;;;;;;;13.48;7.55;;;;;;;0.46;100.00;98855.36;1742517;82;21540;-72
2021/12/19 05:32:43;;;;;;;11.35;6.92;;;;;;;0.49;100.00;98854.00;1742905;82;21580;-75
2021/12/19 05:35:11;;;;;;;10.40;5.53;;;;;;;0.51;100.00;98852.24;1742978;82;21049;-72
2021/12/19 05:45:54;;;;;;;13.22;6.70;;;;;;;0.58;100.00;98838.75;1730445;82;21539;-75
2021/12/19 05:48:21;;;;;;;11.28;6.25;;;;;;;0.59;100.00;98824.45;1732693;82;21521;-75
2021/12/19 05:50:47;;;;;;;11.80;6.30;;;;;;;0.66;100.00;98812.25;1661503;84;21139;-78
2021/12/19 05:53:15;;;;;;;11.55;6.42;;;;;;;0.70;100.00;98805.28;1725232;81;21087;-69
2021/12/19 05:55:42;;;;;;;11.93;6.17;;;;;;;0.73;100.00;98793.55;1731668;82;21076;-72
2021/12/19 05:58:08;;;;;;;10.70;6.50;;;;;;;0.71;100.00;98789.69;1728872;82;22000;-71
2021/12/19 06:00:35;;;;;;;13.05;7.08;;;;;;;0.73;100.00;98789.67;1725796;82;21084;-71
2021/12/19 06:03:02;;;;;;;9.98;6.22;;;;;;;0.78;100.00;98785.25;1721936;82;21151;-70
2021/12/19 06:05:29;;;;;;;13.18;7.50;;;;;;;0.80;100.00;98788.67;1713356;82;21069;-70
2021/12/19 06:07:56;;;;;;;11.10;6.28;;;;;;;0.81;100.00;98782.63;1691116;82;21060;-70
2021/12/19 06:10:28;;;;;;;11.08;6.58;;;;;;;0.82;100.00;98764.88;1731580;82;21136;-70
2021/12/19 06:12:52;;;;;;;9.60;6.22;;;;;;;0.79;100.00;98754.58;1719762;82;21014;-71
2021/12/19 06:15:20;;;;;;;12.28;7.70;;;;;;;0.88;100.00;98749.66;1727635;82;21024;-70
2021/12/19 06:17:47;;;;;;;12.45;6.90;;;;;;;0.89;100.00;98750.91;1721679;82;21048;-68
2021/12/19 06:20:14;;;;;;;12.07;7.33;;;;;;;0.83;100.00;98741.98;1742253;82;21038;-69
2021/12/19 06:22:40;;;;;;;12.10;6.17;;;;;;;0.83;100.00;98747.16;1743328;82;21042;-69
2021/12/19 06:25:09;;;;;;;12.68;7.55;;;;;;;0.84;100.00;98746.27;1743505;82;21044;-69
2021/12/19 06:27:36;;;;;;;11.25;6.85;;;;;;;0.84;100.00;98733.31;1733322;82;21120;-69
2021/12/19 06:30:06;;;;;;;13.18;7.17;;;;;;;0.83;100.00;98736.80;1725120;82;21036;-69
2021/12/19 06:32:32;;;;;;;14.10;8.10;;;;;;;0.87;100.00;98734.98;1714008;82;21439;-69
2021/12/19 06:34:59;;;;;;;13.10;7.97;;;;;;;0.87;100.00;98734.98;1713678;83;21072;-70
2021/12/19 06:37:26;;;;;;;12.58;7.35;;;;;;;0.88;100.00;98720.70;1713387;83;21073;-69
2021/12/19 06:39:53;;;;;;;12.45;7.40;;;;;;;0.87;100.00;98704.72;1713898;83;21099;-68
2021/12/19 06:42:21;;;;;;;14.95;7.78;;;;;;;0.92;100.00;98704.63;1713307;83;21021;-70
2021/12/19 06:44:47;;;;;;;14.63;8.98;;;;;;;0.94;100.00;98688.16;1713514;82;21016;-70
2021/12/19 06:47:14;;;;;;;11.93;6.95;;;;;;;0.98;100.00;98684.62;1713326;83;21041;-70
2021/12/19 06:49:40;;;;;;;18.10;8.65;;;;;;;0.99;100.00;98683.75;1713458;83;21493;-70
2021/12/19 06:52:07;;;;;;;13.48;8.13;;;;;;;1.05;100.00;98686.19;1717702;82;21330;-72
2021/12/19 06:54:33;;;;;;;13.58;8.03;;;;;;;1.13;100.00;98683.87;1738268;82;21081;-71
2021/12/19 06:57:00;;;;;;;13.62;8.63;;;;;;;1.14;100.00;98668.73;1655541;85;21102;-70
2021/12/19 06:59:26;;;;;;;17.02;8.58;;;;;;;1.17;100.00;98664.77;1667354;84;21077;-69
2021/12/19 07:01:52;;;;;;;16.35;9.40;;;;;;;1.15;100.00;98662.66;1667131;84;21069;-69
2021/12/19 07:04:19;;;;;;;16.05;8.90;;;;;;;1.16;100.00;98675.59;1685105;84;21137;-70
2021/12/19 07:06:45;;;;;;;19.73;10.20;;;;;;;1.22;100.00;98676.77;1678715;85;21105;-71
2021/12/19 07:09:13;;;;;;;15.80;8.90;;;;;;;1.20;100.00;98668.61;1669375;84;21613;-72
2021/12/19 07:11:40;;;;;;;15.20;8.45;;;;;;;1.27;100.00;98680.55;1682508;85;21120;-71
2021/12/19 07:14:07;;;;;;;17.00;10.08;;;;;;;1.26;100.00;98671.05;1671547;85;21081;-70
2021/12/19 07:16:33;;;;;;;17.30;8.83;;;;;;;1.26;100.00;98681.42;1674320;84;21799;-70
2021/12/19 07:18:59;;;;;;;18.27;9.48;;;;;;;1.26;100.00;98686.61;1692103;83;21085;-72
2021/12/19 07:21:28;;;;;;;15.90;9.00;;;;;;;1.23;100.00;98675.02;1698660;83;22261;-69
2021/12/19 07:23:54;;;;;;;16.12;9.35;;;;;;;1.26;100.00;98660.67;1685268;83;21062;-70
2021/12/19 07:26:22;;;;;;;14.98;8.75;;;;;;;1.25;100.00;98642.13;1685028;83;21620;-69
2021/12/19 07:28:51;;;;;;;18.45;10.18;;;;;;;1.21;100.00;98644.37;1667598;83;21222;-69
2021/12/19 07:31:19;;;;;;;18.00;9.70;;;;;;;1.28;100.00;98635.56;1703346;83;21572;-69
2021/12/19 07:33:46;;;;;;;20.25;10.63;;;;;;;1.27;100.00;98605.34;1702676;83;21126;-71
2021/12/19 07:36:14;;;;;;;21.42;10.25;;;;;;;1.25;100.00;98577.29;1708211;83;21121;-72
2021/12/19 07:41:25;;;;;;;21.75;11.05;;;;;;;1.25;100.00;98601.47;1693723;83;21863;-68
2021/12/19 07:43:51;;;;;;;18.25;9.88;;;;;;;1.25;100.00;98605.81;1693195;83;21187;-69
2021/12/19 07:46:18;;;;;;;19.62;10.20;;;;;;;1.27;100.00;98600.16;1696341;83;21085;-70
2021/12/19 07:48:48;;;;;;;24.90;11.85;;;;;;;1.29;100.00;98598.37;1699526;83;21101;-69
2021/12/19 07:51:14;;;;;;;24.87;11.15;;;;;;;1.30;100.00;98598.77;1708887;83;21125;-69
2021/12/19 07:53:41;;;;;;;21.25;10.08;;;;;;;1.30;100.00;98584.50;1705805;83;21157;-70
2021/12/19 07:56:07;;;;;;;26.95;12.13;;;;;;;1.29;100.00;98577.63;1697195;83;21075;-72
2021/12/19 07:58:34;;;;;;;19.92;11.05;;;;;;;1.28;100.00;98588.88;1710122;83;21071;-70
2021/12/19 08:01:02;;;;;;;27.13;13.18;;;;;;;1.29;100.00;98612.64;1700742;83;21544;-69
2021/12/19 08:03:28;;;;;;;26.57;12.45;;;;;;;1.35;100.00;98608.58;1706603;83;21077;-68
2021/12/19 08:05:55;;;;;;;28.05;13.38;;;;;;;1.37;100.00;98592.55;1697129;83;21932;-69
2021/12/19 08:08:26;;;;;;;25.40;12.35;;;;;;;1.39;100.00;98582.14;1691781;83;21778;-69
2021/12/19 08:13:16;;;;;;;28.80;12.68;;;;;;;1.46;100.00;98570.27;1698498;83;21121;-68
2021/12/19 08:15:43;;;;;;;21.02;11.90;;;;;;;1.50;100.00;98576.70;1698409;83;21084;-68
2021/12/19 08:18:09;;;;;;;31.65;13.83;;;;;;;1.49;100.00;98567.19;1692322;83;21135;-70
2021/12/19 08:20:36;;;;;;;29.52;12.70;;;;;;;1.52;100.00;98560.61;1692645;83;21159;-70
2021/12/19 08:23:02;;;;;;;26.48;12.73;;;;;;;1.52;100.00;98563.21;1696436;83;21654;-73
2021/12/19 08:25:30;;;;;;;29.20;13.48;;;;;;;1.52;100.00;98563.21;1693766;83;21171;-70
2021/12/19 08:27:56;;;;;;;26.27;12.37;;;;;;;1.55;100.00;98556.67;1691321;83;20999;-70
2021/12/19 08:30:24;;;;;;;30.62;14.05;;;;;;;1.59;100.00;98560.89;1696648;83;21600;-69
2021/12/19 08:32:53;;;;;;;35.95;15.30;;;;;;;1.60;100.00;98554.80;1696787;83;21405;-70
2021/12/19 08:35:19;;;;;;;27.48;12.45;;;;;;;1.66;100.00;98558.55;1694281;83;21144;-68
2021/12/19 08:37:45;;;;;;;35.40;14.63;;;;;;;1.61;100.00;98544.81;1699034;83;21138;-69
2021/12/19 08:40:12;;;;;;;27.40;12.93;;;;;;;1.58;100.00;98539.71;1698720;83;21157;-70
2021/12/19 08:42:39;;;;;;;26.95;12.75;;;;;;;1.61;100.00;98535.73;1696003;83;21089;-69
2021/12/19 08:45:08;;;;;;;31.50;13.48;;;;;;;1.58;100.00;98537.12;1693859;83;21974;-67
2021/12/19 08:47:37;;;;;;;24.40;12.37;;;;;;;1.60;100.00;98531.45;1689486;83;21100;-70
2021/12/19 08:50:06;;;;;;;29.42;13.83;;;;;;;1.57;100.00;98517.27;1648445;85;21066;-70
2021/12/19 08:52:34;;;;;;;25.30;11.68;;;;;;;1.58;100.00;98517.20;1645220;86;21176;-70
2021/12/19 08:55:04;;;;;;;25.62;11.22;;;;;;;1.59;100.00;98499.46;1642109;87;21082;-69
2021/12/19 08:57:32;;;;;;;23.73;11.35;;;;;;;1.59;100.00;98499.46;1643965;86;21106;-70
2021/12/19 08:59:58;;;;;;;26.97;11.95;;;;;;;1.62;100.00;98502.42;1692980;83;21550;-69
2021/12/19 09:02:25;;;;;;;19.65;10.43;;;;;;;1.64;100.00;98490.26;1702152;83;21106;-71
2021/12/19 09:04:51;;;;;;;26.87;10.45;;;;;;;1.66;100.00;98488.48;1699557;83;21071;-68
2021/12/19 09:07:22;;;;;;;22.85;9.93;;;;;;;1.72;100.00;98488.28;1685143;83;21105;-69
2021/12/19 09:09:50;;;;;;;25.15;9.63;;;;;;;1.75;100.00;98483.45;1728923;81;21049;-70
2021/12/19 09:12:17;;;;;;;19.57;9.30;;;;;;;1.78;100.00;98470.41;1724771;82;21053;-71
2021/12/19 09:14:44;;;;;;;18.45;8.03;;;;;;;1.72;100.00;98475.31;1733850;82;21063;-69
2021/12/19 09:17:11;;;;;;;24.27;9.53;;;;;;;1.67;100.00;98478.48;1730065;81;21579;-69
2021/12/19 09:19:39;;;;;;;20.32;8.93;;;;;;;1.67;100.00;98472.84;1738795;82;21342;-68
2021/12/19 09:22:07;;;;;;;20.97;9.23;;;;;;;1.62;100.00;98461.75;1731589;81;21124;-68
2021/12/19 09:24:35;;;;;;;17.65;8.00;;;;;;;1.59;100.00;98455.81;1733744;82;21024;-69
2021/12/19 09:27:03;;;;;;;14.85;7.53;;;;;;;1.61;100.00;98459.19;1725821;82;21531;-70
2021/12/19 09:29:30;;;;;;;18.10;7.80;;;;;;;1.51;100.00;98438.28;1725772;82;21064;-69
2021/12/19 09:31:56;;;;;;;17.60;8.23;;;;;;;1.57;100.00;98449.35;1734124;82;21123;-70
2021/12/19 09:34:27;;;;;;;19.25;8.58;;;;;;;1.54;100.00;98440.78;1731861;82;21072;-70
2021/12/19 09:36:55;;;;;;;16.70;7.67;;;;;;;1.50;100.00;98437.90;1734141;82;22196;-71
2021/12/19 09:39:23;;;;;;;13.78;6.78;;;;;;;1.44;100.00;98430.66;1728331;82;21077;-69
2021/12/19 09:41:59;;;;;;;20.32;8.73;;;;;;;1.42;100.00;98419.92;1729204;82;21043;-70
2021/12/19 09:44:27;;;;;;;16.42;7.60;;;;;;;1.40;100.00;98418.69;1729933;82;21457;-70
2021/12/19 09:46:54;;;;;;;16.02;6.90;;;;;;;1.41;100.00;98412.59;1722302;82;21028;-68
2021/12/19 09:49:21;;;;;;;14.63;6.60;;;;;;;1.37;100.00;98409.68;1727067;82;21056;-70
2021/12/19 09:51:49;;;;;;;11.28;6.00;;;;;;;1.37;100.00;98408.83;1724167;81;21065;-72
2021/12/19 09:54:15;;;;;;;16.80;7.12;;;;;;;1.37;100.00;98403.65;1727351;82;21598;-70
2021/12/19 09:56:42;;;;;;;11.53;5.80;;;;;;;1.36;100.00;98405.40;1731984;82;21841;-70
2021/12/19 09:59:13;;;;;;;13.00;6.25;;;;;;;1.39;100.00;98393.63;1726610;82;21099;-70
2021/12/19 10:01:41;;;;;;;14.30;6.78;;;;;;;1.39;100.00;98397.52;1723790;82;21119;-70
2021/12/19 10:04:33;;;;;;;11.60;6.60;;;;;;;1.41;100.00;98385.36;1730381;82;21071;-70
2021/12/19 10:07:29;;;;;;;11.60;5.28;;;;;;;1.36;100.00;98379.46;1728835;81;21099;-71
2021/12/19 10:10:02;;;;;;;12.68;5.65;;;;;;;1.25;100.00;98370.67;1722979;82;21830;-69
2021/12/19 10:15:19;;;;;;;10.63;4.67;;;;;;;1.15;100.00;98354.09;1728793;82;21025;-70
2021/12/19 10:17:47;;;;;;;12.50;5.53;;;;;;;1.11;100.00;98346.02;1730737;82;21021;-69
2021/12/19 10:20:16;;;;;;;12.60;5.40;;;;;;;1.13;100.00;98335.14;1723635;82;21139;-71
2021/12/19 10:22:45;;;;;;;11.57;5.45;;;;;;;1.26;100.00;98330.02;1728602;81;21127;-70
2021/12/19 10:25:23;;;;;;;9.65;4.45;;;;;;;1.31;100.00;98321.69;1732950;82;21076;-73
2021/12/19 10:27:58;;;;;;;10.55;5.28;;;;;;;1.40;100.00;98324.44;1728092;82;21088;-71
2021/12/19 10:30:36;;;;;;;12.60;4.65;;;;;;;1.42;100.00;98320.91;1728910;81;21671;-70
2021/12/19 10:33:15;;;;;;;10.30;5.70;;;;;;;1.46;100.00;98321.67;1733660;82;21555;-71
2021/12/19 10:35:50;;;;;;;8.97;4.83;;;;;;;1.53;100.00;98308.08;1737013;82;21956;-70
2021/12/19 10:38:36;;;;;;;11.50;5.78;;;;;;;1.57;100.00;98301.91;1735486;82;21029;-70
2021/12/19 10:41:15;;;;;;;10.82;5.75;;;;;;;1.65;100.00;98292.98;1737456;82;21154;-70
2021/12/19 10:44:02;;;;;;;11.00;5.65;;;;;;;1.70;100.00;98284.21;1729583;82;21049;-70
2021/12/19 10:46:39;;;;;;;12.58;6.15;;;;;;;1.74;100.00;98267.20;1725310;82;21690;-69
2021/12/19 10:49:29;;;;;;;14.07;6.47;;;;;;;1.79;100.00;98252.78;1717960;82;21626;-71
2021/12/19 10:51:53;;;;;;;11.70;5.78;;;;;;;1.82;100.00;98248.81;1724553;82;21076;-71
2021/12/19 10:54:20;;;;;;;15.00;7.00;;;;;;;1.88;100.00;98246.00;1728422;82;20997;-71
2021/12/19 10:56:47;;;;;;;14.83;7.05;;;;;;;1.88;100.00;98246.00;1705599;82;21083;-70
2021/12/19 10:59:21;;;;;;;13.10;6.72;;;;;;;1.94;100.00;98247.57;1740682;82;21056;-71
2021/12/19 11:01:56;;;;;;;15.85;6.35;;;;;;;1.97;100.00;98228.83;1715546;82;21713;-70
2021/12/19 11:04:22;;;;;;;13.08;6.72;;;;;;;1.97;100.00;98228.83;1725653;82;21036;-71
2021/12/19 11:06:57;;;;;;;15.65;6.45;;;;;;;2.02;100.00;98221.73;1737578;82;21084;-70
2021/12/19 11:09:27;;;;;;;14.33;7.25;;;;;;;2.12;100.00;98217.11;1731307;82;21539;-71
2021/12/19 11:12:05;;;;;;;14.13;6.62;;;;;;;2.12;100.00;98217.11;1716505;83;21508;-70
2021/12/19 11:14:40;;;;;;;12.95;6.08;;;;;;;2.15;100.00;98210.50;1721415;82;21734;-71
2021/12/19 11:17:21;;;;;;;12.98;6.87;;;;;;;2.17;100.00;98204.81;1743201;82;20993;-70
2021/12/19 11:19:52;;;;;;;11.53;5.97;;;;;;;2.21;100.00;98201.22;1724315;82;21032;-70
2021/12/19 11:22:25;;;;;;;10.43;5.65;;;;;;;2.21;100.00;98193.85;1716233;82;21060;-69
2021/12/19 11:24:59;;;;;;;11.33;6.15;;;;;;;2.24;100.00;98189.88;1716783;82;21044;-70
2021/12/19 11:27:27;;;;;;;13.58;6.40;;;;;;;2.27;100.00;98193.66;1716504;83;21880;-71
2021/12/19 11:29:54;;;;;;;11.53;5.78;;;;;;;2.28;100.00;98187.12;1719804;81;21102;-71
2021/12/19 11:32:23;;;;;;;14.47;5.40;;;;;;;2.32;100.00;98194.34;1718540;82;21132;-70
2021/12/19 11:35:14;;;;;;;12.00;5.40;;;;;;;2.40;100.00;98191.49;1722636;82;21119;-70
2021/12/19 11:38:00;;;;;;;9.00;4.55;;;;;;;2.43;100.00;98183.58;1720636;81;21152;-71
2021/12/19 11:40:32;;;;;;;9.15;4.72;;;;;;;2.50;100.00;98172.06;1724383;82;21122;-71
2021/12/19 11:43:10;;;;;;;9.18;4.55;;;;;;;2.50;100.00;98172.06;1721885;82;21029;-71
2021/12/19 11:45:43;;;;;;;8.15;4.45;;;;;;;2.52;100.00;98169.80;1740085;82;20994;-70
2021/12/19 11:48:33;;;;;;;9.58;4.12;;;;;;;2.59;100.00;98156.60;1741098;81;21639;-68
2021/12/19 11:51:03;;;;;;;7.58;4.22;;;;;;;2.64;100.00;98163.31;1727154;81;21638;-71
2021/12/19 11:53:33;;;;;;;7.15;3.98;;;;;;;2.67;100.00;98161.92;1716414;83;21792;-71
2021/12/19 11:56:10;;;;;;;7.42;3.92;;;;;;;2.72;100.00;98157.86;1717630;82;21099;-72
2021/12/19 11:58:49;;;;;;;6.22;4.00;;;;;;;2.76;100.00;98145.58;1732021;82;21671;-70
2021/12/19 12:01:24;;;;;;;7.60;3.67;;;;;;;2.77;100.00;98148.59;1728006;82;21596;-72
2021/12/19 12:04:03;;;;;;;6.45;3.27;;;;;;;2.84;100.00;98141.80;1729326;81;21080;-71
2021/12/19 12:06:56;;;;;;;6.62;4.12;;;;;;;2.88;100.00;98146.44;1732690;82;21029;-71
2021/12/19 12:09:28;;;;;;;6.28;3.72;;;;;;;2.89;100.00;98153.32;1727238;82;21053;-70
2021/12/19 12:12:10;;;;;;;6.90;4.10;;;;;;;2.97;100.00;98155.19;1721115;82;21182;-70
2021/12/19 12:14:55;;;;;;;7.12;3.50;;;;;;;3.00;100.00;98138.63;1723948;82;21009;-71
2021/12/19 12:17:35;;;;;;;6.40;3.42;;;;;;;3.00;100.00;98136.86;1731135;82;21134;-69
2021/12/19 12:20:15;;;;;;;6.55;3.52;;;;;;;3.09;100.00;98139.11;1728240;82;21176;-70
2021/12/19 12:22:50;;;;;;;6.47;3.20;;;;;;;3.11;100.00;98136.00;1723090;82;21049;-70
2021/12/19 12:25:31;;;;;;;6.20;3.15;;;;;;;3.11;100.00;98138.60;1733857;82;21057;-71
2021/12/19 12:28:08;;;;;;;5.53;3.42;;;;;;;3.15;100.00;98136.28;1726161;82;21059;-72
2021/12/19 12:30:45;;;;;;;5.70;3.22;;;;;;;3.13;100.00;98134.19;1726301;82;21065;-71
2021/12/19 12:33:17;;;;;;;5.78;3.40;;;;;;;3.09;100.00;98137.81;1732472;82;21098;-71
2021/12/19 12:35:48;;;;;;;4.90;3.00;;;;;;;3.11;100.00;98130.80;1725079;82;21005;-72
2021/12/19 12:38:15;;;;;;;;;;;;;;;3.12;100.00;98133.78;1722237;82;21063;-71
2021/12/19 12:41:04;;;;;;;4.08;2.30;;;;;;;3.12;100.00;98138.14;1682208;85;20174;-71
2021/12/19 12:43:32;;;;;;;5.20;2.35;;;;;;;3.08;100.00;98146.53;1685978;84;21370;-70
2021/12/19 12:46:09;;;;;;;3.27;1.85;;;;;;;3.06;100.00;98149.64;1682601;85;21468;-70
2021/12/19 12:48:45;;;;;;;4.55;2.33;;;;;;;3.06;100.00;98145.74;1695166;83;21093;-71